Time;durP1;ratioP1;P1;durP2;ratioP2;P2;SDS_P1;SDS_P2;PMS_P1;PMS_P2;Temp;Humidity;BMP_temperature;BMP_pressure;BME280_temperature;BME280_humidity;BME280_pressure;Samples;Min_cycle;Max_cycle;Signal;HPM_P1;HPM_P2
2022/09/27 00:00:43;;;;;;;4.07;3.67;;;17.80;85.80;;;;;;5034504;28;20147;-88
2022/09/27 00:03:12;;;;;;;4.10;3.67;;;17.80;85.80;;;;;;5033864;28;20112;-88
2022/09/27 00:05:38;;;;;;;4.32;3.92;;;17.80;85.90;;;;;;5044815;28;20028;-87
2022/09/27 00:08:05;;;;;;;3.70;3.35;;;17.80;85.90;;;;;;5034028;28;20464;-87
2022/09/27 00:10:31;;;;;;;4.10;3.58;;;17.80;85.90;;;;;;5033646;28;20032;-88
2022/09/27 00:12:57;;;;;;;4.38;3.75;;;17.80;85.90;;;;;;5033753;28;20047;-86
2022/09/27 00:15:22;;;;;;;3.97;3.65;;;17.80;85.90;;;;;;5033296;28;20029;-87
2022/09/27 00:17:51;;;;;;;3.88;3.47;;;17.80;86.00;;;;;;5033524;28;20384;-87
2022/09/27 00:20:19;;;;;;;4.65;3.67;;;17.80;86.00;;;;;;5032652;28;20025;-88
2022/09/27 00:22:47;;;;;;;3.83;3.47;;;17.80;86.10;;;;;;5032966;28;20033;-88
2022/09/27 00:25:13;;;;;;;4.30;3.85;;;17.90;86.20;;;;;;5030304;28;20056;-88
2022/09/27 00:27:39;;;;;;;5.30;3.65;;;17.80;86.10;;;;;;5051721;28;20031;-88
2022/09/27 00:30:05;;;;;;;4.35;3.95;;;17.80;86.10;;;;;;5033791;28;20044;-87
2022/09/27 00:32:31;;;;;;;4.10;3.70;;;17.80;86.70;;;;;;5032577;28;20375;-87
2022/09/27 00:34:57;;;;;;;4.43;3.90;;;17.80;86.10;;;;;;5028329;28;20496;-88
2022/09/27 00:37:22;;;;;;;4.68;3.95;;;17.90;86.10;;;;;;5055815;28;20029;-87
2022/09/27 00:39:48;;;;;;;5.75;4.30;;;17.80;86.10;;;;;;5033735;28;20063;-87
2022/09/27 00:42:14;;;;;;;6.60;5.05;;;17.80;86.20;;;;;;5051846;28;20029;-87
2022/09/27 00:44:40;;;;;;;12.05;6.28;;;17.80;86.20;;;;;;5032966;28;20411;-88
2022/09/27 00:47:30;;;;;;;12.38;7.63;;;17.80;86.20;;;;;;5028014;28;20112;-87
2022/09/27 00:49:56;;;;;;;13.93;8.93;;;17.90;86.10;;;;;;5025706;28;20065;-87
2022/09/27 00:52:38;;;;;;;18.23;10.05;;;17.90;86.20;;;;;;5033023;28;20067;-87
2022/09/27 00:55:10;;;;;;;24.17;11.00;;;17.80;86.10;;;;;;5033017;28;20108;-88
2022/09/27 00:57:36;;;;;;;20.20;10.52;;;17.80;86.10;;;;;;5032934;28;20028;-87
2022/09/27 01:00:09;;;;;;;21.33;11.43;;;17.90;86.30;;;;;;5033116;28;20404;-87
2022/09/27 01:02:40;;;;;;;20.17;11.02;;;17.90;86.20;;;;;;5032793;28;20094;-88
2022/09/27 01:05:08;;;;;;;20.02;10.95;;;17.90;86.30;;;;;;5029285;28;20033;-87
2022/09/27 01:07:33;;;;;;;17.75;10.75;;;17.90;86.20;;;;;;5032218;28;20078;-87
2022/09/27 01:09:59;;;;;;;21.25;10.38;;;17.80;86.20;;;;;;5033402;28;20021;-87
2022/09/27 01:12:54;;;;;;;13.18;8.48;;;17.80;86.30;;;;;;5031708;28;20017;-87
2022/09/27 01:15:42;;;;;;;13.25;7.75;;;17.80;86.30;;;;;;5041197;28;20036;-88
2022/09/27 01:18:17;;;;;;;11.60;6.97;;;17.80;86.10;;;;;;5014586;28;20052;-87
2022/09/27 01:21:07;;;;;;;13.43;7.88;;;17.80;86.30;;;;;;5030765;28;20567;-88
2022/09/27 01:23:45;;;;;;;12.53;7.63;;;17.80;86.00;;;;;;5061540;28;20135;-88
2022/09/27 01:26:38;;;;;;;11.95;8.13;;;17.80;86.20;;;;;;5028170;28;20368;-88
2022/09/27 01:29:25;;;;;;;12.82;7.82;;;17.80;86.20;;;;;;5032728;28;20044;-88
2022/09/27 01:31:56;;;;;;;13.45;8.68;;;17.80;86.20;;;;;;5050189;28;20161;-87
2022/09/27 01:34:25;;;;;;;12.52;7.78;;;17.80;86.30;;;;;;5032557;28;20547;-88
2022/09/27 01:37:03;;;;;;;17.73;9.05;;;17.80;86.40;;;;;;5032541;28;20021;-88
2022/09/27 01:39:32;;;;;;;13.75;8.43;;;17.80;86.30;;;;;;5031909;28;20028;-88
2022/09/27 01:42:02;;;;;;;12.32;7.35;;;17.80;86.40;;;;;;5032068;28;20017;-87
2022/09/27 01:44:50;;;;;;;10.80;6.80;;;17.90;86.30;;;;;;5045610;28;20021;-87
2022/09/27 01:47:20;;;;;;;10.90;6.70;;;17.80;86.40;;;;;;5040762;28;20013;-88
2022/09/27 01:49:53;;;;;;;12.27;7.78;;;17.80;86.40;;;;;;5032483;28;20031;-88
2022/09/27 01:52:25;;;;;;;8.88;6.60;;;17.80;86.30;;;;;;5029921;28;20079;-88
2022/09/27 01:54:55;;;;;;;10.35;6.13;;;17.90;86.30;;;;;;5031941;28;20074;-87
2022/09/27 01:57:25;;;;;;;7.18;5.60;;;17.80;86.40;;;;;;5031613;28;20504;-88
2022/09/27 02:00:11;;;;;;;9.10;5.57;;;17.90;86.40;;;;;;5029798;28;20027;-88
2022/09/27 02:02:48;;;;;;;6.95;5.18;;;17.80;86.40;;;;;;5028889;28;20112;-88
2022/09/27 02:05:16;;;;;;;6.20;5.03;;;17.90;86.50;;;;;;5026078;28;20026;-88
2022/09/27 02:08:04;;;;;;;6.00;4.90;;;17.90;86.40;;;;;;5031460;28;20075;-88
2022/09/27 02:10:42;;;;;;;5.65;4.47;;;17.90;86.40;;;;;;5028792;28;20108;-88
2022/09/27 02:13:22;;;;;;;6.55;4.47;;;17.80;86.40;;;;;;5032567;28;20111;-88
2022/09/27 02:16:20;;;;;;;5.88;4.70;;;17.80;86.40;;;;;;5030601;28;20443;-88
2022/09/27 02:19:08;;;;;;;5.43;4.47;;;17.80;86.40;;;;;;5024957;28;20039;-88
2022/09/27 02:21:53;;;;;;;5.88;4.65;;;17.80;86.50;;;;;;5027691;28;20163;-88
2022/09/27 02:24:23;;;;;;;6.65;5.03;;;17.80;86.50;;;;;;5024873;28;20028;-88
2022/09/27 02:27:00;;;;;;;6.13;5.00;;;17.80;86.70;;;;;;5036250;28;20547;-87
2022/09/27 02:29:38;;;;;;;6.10;5.13;;;17.90;86.70;;;;;;5035856;28;20435;-88
2022/09/27 02:32:04;;;;;;;6.13;4.85;;;17.80;86.80;;;;;;5033516;28;20040;-88
2022/09/27 02:34:33;;;;;;;7.68;5.53;;;17.80;86.90;;;;;;5053503;28;20029;-88
2022/09/27 02:36:59;;;;;;;7.82;5.30;;;17.80;87.10;;;;;;5035499;28;20110;-87
2022/09/27 02:39:26;;;;;;;6.28;5.00;;;17.80;87.10;;;;;;5040701;28;20170;-88
2022/09/27 02:41:51;;;;;;;7.10;5.60;;;17.80;87.20;;;;;;5036320;28;20060;-82
2022/09/27 02:44:20;;;;;;;10.77;6.65;;;17.80;87.20;;;;;;5037460;28;20075;-82
2022/09/27 02:46:55;;;;;;;9.55;6.65;;;17.80;87.30;;;;;;5036044;28;20392;-88
2022/09/27 02:49:30;;;;;;;9.93;6.68;;;17.80;87.20;;;;;;5033477;28;20025;-87
2022/09/27 02:51:58;;;;;;;21.70;9.73;;;17.80;87.30;;;;;;5027569;28;20037;-88
2022/09/27 02:54:36;;;;;;;21.88;12.35;;;17.80;87.40;;;;;;5053453;28;20013;-88
2022/09/27 02:57:28;;;;;;;23.52;12.77;;;17.80;87.30;;;;;;5035848;28;20032;-87
2022/09/27 03:00:06;;;;;;;20.13;12.32;;;17.80;87.30;;;;;;5035551;28;20017;-88
2022/09/27 03:02:44;;;;;;;17.48;10.48;;;17.80;87.40;;;;;;5031238;28;20492;-88
2022/09/27 03:05:19;;;;;;;14.52;9.00;;;17.80;87.40;;;;;;5035193;28;20029;-87
2022/09/27 03:07:45;;;;;;;10.05;7.88;;;17.70;87.50;;;;;;5031913;28;20115;-88
2022/09/27 03:10:20;;;;;;;9.63;7.35;;;17.70;87.60;;;;;;5033760;28;20215;-87
2022/09/27 03:12:46;;;;;;;8.02;6.45;;;17.70;87.70;;;;;;5034292;28;20475;-88
2022/09/27 03:15:12;;;;;;;7.30;6.22;;;17.70;87.80;;;;;;5035648;28;20065;-87
2022/09/27 03:17:38;;;;;;;7.13;5.88;;;17.70;87.90;;;;;;5027925;28;20484;-88
2022/09/27 03:20:04;;;;;;;6.32;5.43;;;17.70;88.00;;;;;;5031283;28;20021;-87
2022/09/27 03:22:29;;;;;;;8.10;6.28;;;17.70;88.10;;;;;;5052846;28;20123;-87
2022/09/27 03:24:56;;;;;;;6.85;6.15;;;17.60;88.20;;;;;;5034306;28;20029;-88
2022/09/27 03:27:22;;;;;;;6.63;5.80;;;17.60;88.20;;;;;;5050544;28;20078;-87
2022/09/27 03:29:47;;;;;;;6.50;5.72;;;17.60;88.30;;;;;;5035663;28;20446;-88
2022/09/27 03:32:13;;;;;;;7.60;6.03;;;17.60;88.40;;;;;;5028502;28;20043;-88
2022/09/27 03:34:39;;;;;;;6.13;5.47;;;17.50;88.40;;;;;;5041836;28;20400;-87
2022/09/27 03:37:04;;;;;;;6.50;5.75;;;17.50;88.60;;;;;;5033650;28;20107;-86
2022/09/27 03:39:30;;;;;;;7.57;6.75;;;17.50;89.40;;;;;;5034102;28;20037;-87
2022/09/27 03:41:56;;;;;;;7.40;6.70;;;17.40;88.90;;;;;;5034020;28;20060;-88
2022/09/27 03:44:22;;;;;;;7.20;6.07;;;17.40;89.00;;;;;;5034091;28;20048;-88
2022/09/27 03:46:47;;;;;;;8.43;7.13;;;17.40;89.10;;;;;;5033582;28;20124;-87
2022/09/27 03:49:13;;;;;;;7.68;6.85;;;17.40;89.10;;;;;;5033426;28;20478;-88
2022/09/27 03:51:39;;;;;;;7.97;7.18;;;17.40;89.20;;;;;;5034151;28;20029;-88
2022/09/27 03:54:04;;;;;;;8.07;7.22;;;17.40;89.50;;;;;;5033601;28;20117;-88
2022/09/27 03:56:30;;;;;;;8.63;7.18;;;17.40;89.50;;;;;;5034008;28;20056;-87
2022/09/27 03:58:55;;;;;;;8.98;7.72;;;17.30;89.60;;;;;;5033256;28;20120;-87
2022/09/27 04:01:21;;;;;;;8.50;7.55;;;17.30;89.70;;;;;;5032818;28;20083;-87
2022/09/27 04:03:47;;;;;;;8.35;7.38;;;17.40;89.80;;;;;;5034051;28;20036;-88
2022/09/27 04:06:13;;;;;;;7.63;6.85;;;17.30;89.90;;;;;;5048428;28;20049;-87
2022/09/27 04:08:39;;;;;;;8.45;7.57;;;17.30;89.90;;;;;;5046115;28;20110;-88
2022/09/27 04:11:05;;;;;;;7.28;6.55;;;17.30;90.00;;;;;;5051880;28;20049;-88
2022/09/27 04:13:31;;;;;;;6.75;6.05;;;17.30;90.00;;;;;;5033726;28;20124;-88
2022/09/27 04:15:57;;;;;;;7.80;7.00;;;17.30;90.00;;;;;;5032648;28;20163;-87
2022/09/27 04:18:22;;;;;;;7.88;6.85;;;17.30;90.10;;;;;;5051225;28;20028;-87
2022/09/27 04:20:48;;;;;;;7.75;6.90;;;17.30;90.20;;;;;;5051345;28;20040;-87
2022/09/27 04:23:14;;;;;;;8.07;7.15;;;17.30;90.20;;;;;;5051845;28;20431;-87
2022/09/27 04:25:39;;;;;;;8.38;6.65;;;17.30;90.10;;;;;;5033350;28;20394;-88
2022/09/27 04:28:05;;;;;;;7.30;6.50;;;17.30;90.10;;;;;;5033781;28;20059;-88
2022/09/27 04:30:31;;;;;;;6.13;5.53;;;17.30;90.20;;;;;;5033259;28;20027;-88
2022/09/27 04:32:57;;;;;;;7.13;6.43;;;17.40;90.30;;;;;;5051781;28;20028;-88
2022/09/27 04:38:06;;;;;;;8.05;6.90;;;17.40;90.30;;;;;;5051179;28;20032;-87
2022/09/27 04:40:36;;;;;;;7.40;6.50;;;17.40;90.30;;;;;;5030374;28;20033;-88
2022/09/27 04:43:03;;;;;;;8.80;6.65;;;17.40;90.30;;;;;;5033450;28;20495;-88
2022/09/27 04:45:29;;;;;;;7.60;6.80;;;17.40;90.30;;;;;;5033748;28;20020;-87
2022/09/27 04:47:54;;;;;;;7.70;6.88;;;17.40;90.30;;;;;;5050930;28;20488;-87
2022/09/27 04:50:20;;;;;;;7.68;6.88;;;17.40;90.30;;;;;;5036726;28;20021;-87
2022/09/27 04:52:53;;;;;;;7.90;7.10;;;17.40;90.30;;;;;;5051428;28;20040;-88
2022/09/27 04:55:20;;;;;;;8.00;6.45;;;17.40;90.30;;;;;;5033975;28;20028;-88
2022/09/27 04:57:47;;;;;;;7.50;6.57;;;17.40;90.40;;;;;;5033469;28;20029;-87
2022/09/27 05:00:14;;;;;;;7.50;6.63;;;17.40;90.40;;;;;;5033055;28;20024;-86
2022/09/27 05:02:41;;;;;;;7.88;6.32;;;17.40;90.40;;;;;;5032495;28;20033;-87
2022/09/27 05:05:07;;;;;;;8.45;6.90;;;17.40;90.50;;;;;;5032799;28;20025;-88
2022/09/27 05:07:34;;;;;;;7.35;6.60;;;17.40;90.50;;;;;;5031943;28;20056;-87
2022/09/27 05:09:59;;;;;;;6.70;5.13;;;17.40;90.60;;;;;;5032749;28;20017;-87
2022/09/27 05:12:25;;;;;;;7.43;5.97;;;17.40;90.70;;;;;;5032621;28;20413;-87
2022/09/27 05:14:52;;;;;;;7.20;6.38;;;17.50;90.80;;;;;;5030220;28;20049;-88
2022/09/27 05:17:19;;;;;;;7.95;7.15;;;17.50;90.80;;;;;;5033527;28;20074;-87
2022/09/27 05:19:45;;;;;;;7.97;7.05;;;17.50;90.90;;;;;;5032886;28;20551;-88
2022/09/27 05:22:10;;;;;;;9.13;7.10;;;17.50;90.90;;;;;;5032618;28;20120;-87
2022/09/27 05:24:37;;;;;;;9.43;7.20;;;17.60;90.90;;;;;;5044470;28;20025;-88
2022/09/27 05:27:05;;;;;;;9.23;7.25;;;17.60;91.00;;;;;;5050579;28;20447;-87
2022/09/27 05:29:31;;;;;;;8.52;7.63;;;17.60;91.00;;;;;;5032401;28;20443;-88
2022/09/27 05:31:57;;;;;;;8.25;7.00;;;17.60;91.00;;;;;;5030530;28;20120;-87
2022/09/27 05:34:23;;;;;;;8.00;7.00;;;17.60;91.10;;;;;;5029975;28;20353;-87
2022/09/27 05:36:49;;;;;;;8.45;7.15;;;17.70;91.20;;;;;;5027651;28;20460;-87
2022/09/27 05:39:16;;;;;;;8.13;6.45;;;17.70;91.10;;;;;;5030862;28;20100;-87
2022/09/27 05:41:42;;;;;;;8.68;7.38;;;17.70;91.20;;;;;;5030738;28;20542;-88
2022/09/27 05:44:08;;;;;;;7.43;6.65;;;17.70;91.20;;;;;;5030812;28;20056;-87
2022/09/27 05:46:34;;;;;;;7.88;6.93;;;17.70;91.30;;;;;;5047093;28;20029;-87
2022/09/27 05:48:59;;;;;;;7.47;6.35;;;17.70;91.30;;;;;;5032336;28;20029;-87
2022/09/27 05:51:25;;;;;;;6.68;5.97;;;17.80;91.20;;;;;;5029549;28;20052;-87
2022/09/27 05:53:51;;;;;;;7.22;6.40;;;17.70;91.30;;;;;;5026478;28;20029;-87
2022/09/27 05:56:17;;;;;;;6.63;5.90;;;17.80;91.30;;;;;;5028607;28;20028;-86
2022/09/27 05:58:43;;;;;;;7.57;6.15;;;17.80;91.30;;;;;;5021076;28;20132;-87
2022/09/27 06:01:09;;;;;;;7.50;6.35;;;17.80;91.30;;;;;;5043844;28;20574;-88
2022/09/27 06:03:35;;;;;;;7.20;6.28;;;17.80;91.30;;;;;;5029192;28;20044;-87
2022/09/27 06:06:05;;;;;;;8.60;6.70;;;17.90;91.30;;;;;;5046214;28;20025;-88
2022/09/27 06:08:36;;;;;;;7.50;6.43;;;17.80;91.30;;;;;;5044362;28;20111;-88
2022/09/27 06:11:07;;;;;;;8.53;6.90;;;17.80;91.20;;;;;;5032297;28;20116;-88
2022/09/27 06:13:33;;;;;;;;;;;17.80;91.20;;;;;;5033823;28;20044;-88
2022/09/27 06:15:58;;;;;;;7.55;6.68;;;17.80;91.20;;;;;;5036062;28;20830;-88
2022/09/27 06:18:25;;;;;;;7.50;6.65;;;17.80;91.20;;;;;;5034523;28;20056;-86
2022/09/27 06:20:50;;;;;;;8.88;6.70;;;17.80;91.30;;;;;;5038509;28;20041;-91
2022/09/27 06:23:18;;;;;;;7.10;6.20;;;17.70;91.40;;;;;;5052469;28;20107;-89
2022/09/27 06:25:45;;;;;;;7.15;6.43;;;17.70;91.50;;;;;;5048802;28;20040;-90
2022/09/27 06:28:12;;;;;;;7.65;6.85;;;17.70;91.60;;;;;;5040064;28;20021;-90
2022/09/27 06:30:47;;;;;;;7.65;6.68;;;17.80;91.70;;;;;;5030907;28;20388;-88
2022/09/27 06:33:14;;;;;;;8.38;7.47;;;17.80;91.80;;;;;;5027854;28;20108;-89
2022/09/27 06:35:41;;;;;;;7.45;6.40;;;17.80;91.80;;;;;;5047421;28;20033;-88
2022/09/27 06:38:09;;;;;;;8.30;6.20;;;17.70;91.80;;;;;;5045614;28;20033;-87
2022/09/27 06:40:36;;;;;;;8.55;6.95;;;17.70;91.80;;;;;;5047887;28;20025;-87
2022/09/27 06:43:09;;;;;;;7.68;6.88;;;17.80;91.90;;;;;;5071945;23;20056;-65
2022/09/27 06:45:36;;;;;;;8.00;7.07;;;17.80;91.80;;;;;;5061454;28;20116;-64
2022/09/27 06:48:03;;;;;;;8.73;7.00;;;17.80;91.90;;;;;;5068346;28;20210;-64
2022/09/27 06:50:33;;;;;;;8.43;7.55;;;17.70;91.90;;;;;;5066694;28;20553;-64
2022/09/27 06:52:59;;;;;;;9.63;8.63;;;17.80;91.90;;;;;;5064989;28;20017;-65
2022/09/27 06:55:25;;;;;;;8.85;7.90;;;17.70;92.00;;;;;;5065886;28;20032;-64
2022/09/27 07:00:39;;;;;;;8.57;7.50;;;17.70;92.10;;;;;;5067932;28;20090;-65
2022/09/27 07:03:04;;;;;;;9.25;7.72;;;17.70;92.20;;;;;;5064930;28;20407;-64
2022/09/27 07:05:30;;;;;;;8.20;7.38;;;17.70;92.30;;;;;;5063127;28;20029;-65
2022/09/27 07:07:57;;;;;;;7.90;7.07;;;17.70;92.50;;;;;;5062341;28;20029;-64
2022/09/27 07:10:28;;;;;;;7.93;6.75;;;17.70;92.70;;;;;;5041087;28;20097;-64
2022/09/27 07:12:55;;;;;;;8.52;6.82;;;17.70;92.70;;;;;;5053726;28;20391;-64
2022/09/27 07:15:22;;;;;;;7.22;6.40;;;17.70;92.80;;;;;;5064843;28;20108;-64
2022/09/27 07:17:57;;;;;;;8.77;7.70;;;17.80;92.80;;;;;;5059189;28;20027;-65
2022/09/27 07:20:23;;;;;;;8.93;7.28;;;17.80;92.80;;;;;;5048114;28;20116;-64
2022/09/27 07:22:49;;;;;;;9.10;7.80;;;17.80;92.80;;;;;;5060444;28;20025;-64
2022/09/27 07:25:15;;;;;;;8.00;7.07;;;17.80;92.90;;;;;;5054737;28;20027;-64
2022/09/27 07:27:41;;;;;;;8.75;7.82;;;17.80;92.90;;;;;;5057249;28;20117;-64
2022/09/27 07:30:08;;;;;;;9.05;7.57;;;17.80;93.00;;;;;;5058552;28;20032;-64
2022/09/27 07:32:35;;;;;;;8.70;7.20;;;17.80;92.90;;;;;;5060637;28;20116;-64
2022/09/27 07:35:02;;;;;;;7.97;6.93;;;17.80;92.90;;;;;;5066950;28;20021;-64
2022/09/27 07:37:34;;;;;;;7.80;6.85;;;17.80;93.00;;;;;;5059675;28;20063;-63
2022/09/27 07:40:00;;;;;;;;;;;17.80;93.00;;;;;;5065884;28;20040;-64
2022/09/27 07:42:29;;;;;;;8.88;7.18;;;17.80;92.80;;;;;;5061164;28;20375;-64
2022/09/27 07:44:55;;;;;;;7.35;6.25;;;17.80;92.80;;;;;;5059490;28;20036;-64
2022/09/27 07:47:26;;;;;;;7.80;7.00;;;17.80;92.80;;;;;;5052219;28;20542;-64
2022/09/27 07:49:52;;;;;;;8.32;6.75;;;17.80;92.90;;;;;;5060502;28;20025;-64
2022/09/27 07:52:19;;;;;;;8.15;7.15;;;17.80;93.00;;;;;;5059261;28;20040;-64
2022/09/27 07:54:46;;;;;;;7.63;6.05;;;17.80;93.10;;;;;;5062519;28;20151;-64
2022/09/27 07:57:12;;;;;;;7.75;6.72;;;17.80;93.20;;;;;;5062791;28;20029;-64
2022/09/27 07:59:38;;;;;;;9.02;6.80;;;17.80;93.20;;;;;;5052443;28;20514;-64
2022/09/27 08:02:04;;;;;;;7.07;5.93;;;17.70;93.10;;;;;;5045878;28;20640;-64
2022/09/27 08:04:30;;;;;;;8.00;6.20;;;17.70;93.20;;;;;;5045560;28;20032;-64
2022/09/27 08:06:55;;;;;;;7.65;6.13;;;17.70;93.20;;;;;;5052793;28;20029;-64
2022/09/27 08:09:21;;;;;;;6.43;5.75;;;17.80;93.30;;;;;;5052910;28;20100;-64
2022/09/27 08:11:47;;;;;;;5.97;5.38;;;17.80;93.30;;;;;;5056252;28;20064;-64
2022/09/27 08:14:13;;;;;;;6.45;5.80;;;17.80;93.40;;;;;;5060099;28;20056;-64
2022/09/27 08:16:40;;;;;;;7.68;6.35;;;17.70;93.50;;;;;;5052535;28;20037;-64
2022/09/27 08:19:06;;;;;;;7.45;5.70;;;17.80;93.50;;;;;;5053344;28;20028;-64
2022/09/27 08:21:32;;;;;;;6.32;5.60;;;17.80;93.40;;;;;;5057153;28;20067;-64
2022/09/27 08:23:58;;;;;;;6.65;5.95;;;17.80;93.70;;;;;;5054838;28;20190;-64
2022/09/27 08:26:26;;;;;;;7.03;5.53;;;17.80;93.40;;;;;;5056878;28;20492;-64
2022/09/27 08:28:51;;;;;;;7.45;6.43;;;17.80;93.30;;;;;;5055922;28;20016;-64
2022/09/27 08:31:17;;;;;;;7.00;5.57;;;17.80;93.30;;;;;;5052667;28;20744;-64
2022/09/27 08:33:43;;;;;;;6.70;5.82;;;17.80;93.30;;;;;;5057642;28;20384;-64
2022/09/27 08:36:12;;;;;;;6.13;5.25;;;17.80;93.60;;;;;;5058590;28;20132;-64
2022/09/27 08:38:37;;;;;;;6.15;5.55;;;17.80;93.30;;;;;;5055742;28;20048;-64
2022/09/27 08:41:36;;;;;;;6.70;5.13;;;17.90;93.50;;;;;;5055721;28;20041;-64
2022/09/27 08:44:10;;;;;;;5.85;5.07;;;17.90;93.30;;;;;;5058315;28;20085;-64
2022/09/27 08:47:13;;;;;;;6.82;5.47;;;17.90;93.50;;;;;;5056786;28;20025;-64
2022/09/27 08:49:40;;;;;;;6.15;5.55;;;18.00;93.20;;;;;;5051343;28;20029;-65
2022/09/27 08:52:15;;;;;;;7.40;5.95;;;18.00;93.20;;;;;;5057382;28;20432;-64
2022/09/27 08:54:42;;;;;;;5.72;5.13;;;18.00;93.10;;;;;;5054950;28;20116;-64
2022/09/27 08:57:12;;;;;;;6.55;5.57;;;18.00;93.00;;;;;;5056668;28;20132;-64
2022/09/27 08:59:46;;;;;;;5.78;5.18;;;18.10;93.00;;;;;;5060623;28;20074;-64
2022/09/27 09:02:26;;;;;;;6.53;5.82;;;18.00;93.00;;;;;;5054647;28;20728;-64
2022/09/27 09:05:16;;;;;;;7.13;6.28;;;18.10;93.00;;;;;;5052994;28;20114;-64
2022/09/27 09:08:06;;;;;;;6.47;5.68;;;18.10;92.90;;;;;;5051938;28;20166;-64
2022/09/27 09:13:56;;;;;;;7.30;6.40;;;18.10;92.80;;;;;;5053362;28;20411;-64
2022/09/27 09:16:37;;;;;;;6.20;5.57;;;18.10;92.80;;;;;;5049918;28;20043;-64
2022/09/27 09:19:21;;;;;;;5.78;5.18;;;18.10;92.50;;;;;;5059550;28;20116;-64
2022/09/27 09:21:58;;;;;;;6.20;5.45;;;18.00;92.50;;;;;;5055471;28;20037;-64
2022/09/27 09:24:37;;;;;;;5.88;5.13;;;18.00;92.50;;;;;;5055754;28;20151;-64
2022/09/27 09:27:08;;;;;;;5.57;4.75;;;18.00;92.50;;;;;;5050718;28;20028;-64
2022/09/27 09:30:07;;;;;;;5.13;4.63;;;18.00;92.60;;;;;;5056803;28;20040;-64
2022/09/27 09:32:51;;;;;;;5.38;4.57;;;17.90;92.30;;;;;;5054700;28;20094;-64
2022/09/27 09:35:34;;;;;;;5.28;4.78;;;17.90;92.20;;;;;;5054990;28;20021;-64
2022/09/27 09:38:09;;;;;;;5.90;5.30;;;17.90;92.40;;;;;;5056763;28;20029;-64
2022/09/27 09:40:50;;;;;;;5.80;5.03;;;17.90;92.40;;;;;;5062487;28;20036;-64
2022/09/27 09:43:48;;;;;;;6.72;4.80;;;17.90;92.40;;;;;;5058994;28;20039;-64
2022/09/27 09:46:29;;;;;;;4.78;4.28;;;17.90;92.50;;;;;;5051701;28;20667;-64
2022/09/27 09:49:09;;;;;;;5.65;5.03;;;17.90;92.40;;;;;;5055945;28;20033;-64
2022/09/27 09:51:43;;;;;;;5.20;4.55;;;17.90;92.30;;;;;;5053732;28;20034;-64
2022/09/27 09:54:39;;;;;;;5.22;4.72;;;17.90;92.20;;;;;;5064678;28;20459;-64
2022/09/27 09:57:15;;;;;;;5.03;4.50;;;17.80;92.00;;;;;;5054870;28;20125;-64
2022/09/27 09:59:54;;;;;;;6.05;5.18;;;17.90;92.10;;;;;;5055922;28;20390;-64
2022/09/27 10:02:34;;;;;;;6.00;5.10;;;17.90;91.90;;;;;;5056461;28;20391;-64
2022/09/27 10:05:01;;;;;;;5.87;5.17;;;17.90;91.70;;;;;;5059371;28;20040;-64
2022/09/27 10:07:28;;;;;;;6.22;5.00;;;17.80;91.70;;;;;;5054404;28;20507;-64
2022/09/27 10:09:58;;;;;;;6.07;5.07;;;17.80;91.60;;;;;;5057142;28;20467;-64
2022/09/27 10:12:25;;;;;;;5.70;4.93;;;17.80;91.50;;;;;;5050968;28;21025;-64
2022/09/27 10:14:53;;;;;;;4.88;4.30;;;17.80;91.60;;;;;;5051110;28;20115;-63
2022/09/27 10:17:24;;;;;;;5.55;4.68;;;17.80;91.60;;;;;;5051856;28;20546;-64
2022/09/27 10:19:53;;;;;;;4.63;4.22;;;17.80;91.40;;;;;;5050274;28;20347;-64
2022/09/27 10:22:23;;;;;;;5.55;4.35;;;17.80;91.50;;;;;;5054523;28;20048;-63
2022/09/27 10:25:02;;;;;;;7.10;5.40;;;17.80;91.50;;;;;;5050743;28;20025;-64
2022/09/27 10:27:40;;;;;;;5.57;4.65;;;17.80;91.50;;;;;;5057752;28;20052;-64
2022/09/27 10:30:25;;;;;;;6.78;5.00;;;17.80;91.40;;;;;;5053544;28;20033;-64
2022/09/27 10:32:55;;;;;;;7.90;5.93;;;17.80;91.20;;;;;;5057292;28;20016;-64
2022/09/27 10:35:40;;;;;;;5.80;5.07;;;17.90;91.20;;;;;;5046354;28;20116;-64
2022/09/27 10:38:29;;;;;;;5.97;5.07;;;17.90;91.00;;;;;;5053008;28;20489;-63
2022/09/27 10:40:58;;;;;;;5.40;4.40;;;17.80;90.90;;;;;;5045737;28;20102;-64
2022/09/27 10:43:26;;;;;;;5.63;4.50;;;17.90;91.10;;;;;;5056275;28;20024;-64
2022/09/27 10:46:25;;;;;;;5.72;4.60;;;17.80;91.10;;;;;;5049951;28;20045;-63
2022/09/27 10:49:20;;;;;;;5.72;4.50;;;17.90;90.90;;;;;;5051508;28;20032;-64
2022/09/27 10:51:50;;;;;;;5.55;4.72;;;17.80;90.80;;;;;;5051339;28;20056;-63
2022/09/27 10:54:32;;;;;;;5.45;4.40;;;17.70;90.80;;;;;;5056594;28;20024;-64
2022/09/27 10:57:25;;;;;;;5.50;4.63;;;17.70;90.90;;;;;;5057217;28;20036;-64
2022/09/27 11:00:24;;;;;;;6.72;5.22;;;17.70;91.00;;;;;;5052368;28;20047;-64
2022/09/27 11:02:55;;;;;;;5.28;4.78;;;17.60;91.00;;;;;;5047411;28;20069;-64
2022/09/27 11:05:28;;;;;;;5.68;4.85;;;17.60;91.10;;;;;;5047313;28;20801;-64
2022/09/27 11:07:56;;;;;;;6.03;4.38;;;17.60;91.30;;;;;;5051463;28;20024;-64
2022/09/27 11:10:30;;;;;;;6.50;5.35;;;17.50;91.50;;;;;;5051368;28;20017;-63
2022/09/27 11:13:15;;;;;;;5.53;4.85;;;17.50;91.60;;;;;;5049598;28;20020;-64
2022/09/27 11:15:44;;;;;;;6.57;5.20;;;17.40;91.60;;;;;;5053266;28;20032;-64
2022/09/27 11:18:26;;;;;;;6.47;4.95;;;17.40;91.60;;;;;;5057246;28;20032;-64
2022/09/27 11:21:01;;;;;;;6.60;5.50;;;17.30;91.60;;;;;;5052706;28;20423;-63
2022/09/27 11:23:47;;;;;;;6.38;4.90;;;17.30;91.80;;;;;;5053761;28;20195;-63
2022/09/27 11:26:58;;;;;;;6.45;5.10;;;17.20;91.90;;;;;;5054645;28;20202;-64
2022/09/27 11:29:37;;;;;;;5.63;4.88;;;17.20;91.90;;;;;;5056477;28;20448;-64
2022/09/27 11:32:03;;;;;;;5.28;4.65;;;17.10;92.10;;;;;;5054777;28;20039;-64
2022/09/27 11:34:43;;;;;;;5.53;4.60;;;17.00;92.30;;;;;;5058595;28;20395;-64
2022/09/27 11:37:14;;;;;;;5.25;4.75;;;17.00;92.50;;;;;;5059365;28;20047;-64
2022/09/27 11:39:50;;;;;;;6.38;5.30;;;17.00;92.60;;;;;;5050608;28;20025;-64
2022/09/27 11:42:18;;;;;;;5.20;4.70;;;16.90;92.80;;;;;;5054110;28;20119;-64
2022/09/27 11:45:00;;;;;;;5.88;5.15;;;16.90;93.00;;;;;;5050452;28;20526;-64
2022/09/27 11:47:45;;;;;;;5.40;4.55;;;16.90;93.00;;;;;;5049814;28;20538;-64
2022/09/27 11:50:51;;;;;;;6.10;4.72;;;16.90;92.80;;;;;;5059904;28;20028;-63
2022/09/27 11:53:43;;;;;;;5.60;4.70;;;16.90;92.90;;;;;;5046405;28;20151;-63
2022/09/27 11:56:39;;;;;;;5.45;4.80;;;16.80;93.00;;;;;;5049310;28;20075;-64
2022/09/27 11:59:14;;;;;;;4.80;4.18;;;16.80;93.20;;;;;;5052198;28;20067;-64
2022/09/27 12:01:50;;;;;;;5.53;4.68;;;16.80;93.50;;;;;;5050647;28;20513;-64
2022/09/27 12:04:22;;;;;;;5.20;4.35;;;16.80;93.60;;;;;;5054270;28;20546;-64
2022/09/27 12:07:05;;;;;;;6.63;5.13;;;16.70;93.70;;;;;;5054058;28;20104;-64
2022/09/27 12:09:40;;;;;;;5.30;4.43;;;16.70;93.70;;;;;;5059557;28;20494;-64
2022/09/27 12:12:19;;;;;;;5.47;4.35;;;16.70;93.80;;;;;;5056234;28;20024;-64
2022/09/27 12:14:54;;;;;;;5.07;4.38;;;16.70;94.00;;;;;;5056784;28;20029;-63
2022/09/27 12:17:26;;;;;;;5.78;4.82;;;16.80;94.20;;;;;;5053321;28;20024;-64
2022/09/27 12:19:55;;;;;;;5.95;4.97;;;16.80;94.40;;;;;;5053134;28;20017;-63
2022/09/27 12:22:47;;;;;;;6.20;4.88;;;16.80;94.40;;;;;;5053794;28;21727;-64
2022/09/27 12:25:17;;;;;;;6.55;5.13;;;16.80;94.20;;;;;;5031336;28;20047;-64
2022/09/27 12:27:49;;;;;;;6.68;5.35;;;16.80;94.30;;;;;;5050380;28;20448;-64
2022/09/27 12:30:14;;;;;;;5.80;4.78;;;16.90;94.30;;;;;;5046964;28;20029;-64
2022/09/27 12:32:52;;;;;;;7.57;4.97;;;16.90;94.30;;;;;;5052234;28;20842;-63
2022/09/27 12:35:23;;;;;;;6.53;5.10;;;16.90;94.50;;;;;;5060333;28;20029;-64
2022/09/27 12:37:59;;;;;;;6.65;5.25;;;16.90;94.20;;;;;;5059363;28;20452;-64
2022/09/27 12:40:35;;;;;;;5.90;4.10;;;16.90;94.20;;;;;;5053492;28;20024;-64
2022/09/27 12:43:07;;;;;;;5.55;4.88;;;16.90;94.30;;;;;;5056014;28;20048;-64
2022/09/27 12:45:55;;;;;;;6.00;4.78;;;16.90;94.40;;;;;;5062175;28;20033;-64
2022/09/27 12:48:49;;;;;;;5.95;4.50;;;16.90;94.30;;;;;;5059537;28;20027;-64
2022/09/27 12:51:17;;;;;;;5.85;4.55;;;16.90;94.40;;;;;;5059116;28;20460;-63
2022/09/27 12:53:52;;;;;;;6.53;5.15;;;16.90;94.50;;;;;;5056627;28;20372;-64
2022/09/27 12:56:56;;;;;;;6.20;4.65;;;16.90;94.50;;;;;;5053788;28;20028;-64
2022/09/27 12:59:49;;;;;;;6.03;4.63;;;17.00;94.40;;;;;;5058439;28;20372;-64
2022/09/27 13:02:30;;;;;;;5.70;4.63;;;17.00;94.30;;;;;;5061425;28;20021;-64
2022/09/27 13:05:21;;;;;;;6.50;4.95;;;17.00;94.40;;;;;;5055535;28;20518;-63
2022/09/27 13:07:46;;;;;;;5.80;4.80;;;17.00;94.20;;;;;;5055610;28;21722;-64
2022/09/27 13:10:25;;;;;;;5.68;4.25;;;17.10;94.40;;;;;;5053891;28;20028;-64
2022/09/27 13:12:53;;;;;;;5.45;4.30;;;17.00;94.50;;;;;;5053156;28;20492;-64
2022/09/27 13:15:31;;;;;;;5.90;4.72;;;17.10;94.50;;;;;;5049240;28;20024;-64
2022/09/27 13:18:00;;;;;;;5.85;4.72;;;17.10;94.20;;;;;;5057883;28;20035;-64
2022/09/27 13:20:35;;;;;;;4.88;4.15;;;17.10;94.30;;;;;;5049424;28;20020;-64